Map

Track Data

SID SEASON NUMBER BASIN SUBBASIN NAME ISO_TIME NATURE LAT LON WMO_WIND WMO_PRES WMO_AGENCY TRACK_TYPE DIST2LAND LANDFALL IFLAG USA_AGENCY USA_ATCF_ID USA_LAT USA_LON USA_RECORD USA_STATUS USA_WIND USA_PRES USA_SSHS USA_R34_NE USA_R34_SE USA_R34_SW USA_R34_NW USA_R50_NE USA_R50_SE USA_R50_SW USA_R50_NW USA_R64_NE USA_R64_SE USA_R64_SW USA_R64_NW USA_POCI USA_ROCI USA_RMW USA_EYE TOKYO_LAT TOKYO_LON TOKYO_GRADE TOKYO_WIND TOKYO_PRES TOKYO_R50_DIR TOKYO_R50_LONG TOKYO_R50_SHORT TOKYO_R30_DIR TOKYO_R30_LONG TOKYO_R30_SHORT TOKYO_LAND CMA_LAT CMA_LON CMA_CAT CMA_WIND CMA_PRES HKO_LAT HKO_LON HKO_CAT HKO_WIND HKO_PRES NEWDELHI_LAT NEWDELHI_LON NEWDELHI_GRADE NEWDELHI_WIND NEWDELHI_PRES NEWDELHI_CI NEWDELHI_DP NEWDELHI_POCI REUNION_LAT REUNION_LON REUNION_TYPE REUNION_WIND REUNION_PRES REUNION_TNUM REUNION_CI REUNION_RMW REUNION_R34_NE REUNION_R34_SE REUNION_R34_SW REUNION_R34_NW REUNION_R50_NE REUNION_R50_SE REUNION_R50_SW REUNION_R50_NW REUNION_R64_NE REUNION_R64_SE REUNION_R64_SW REUNION_R64_NW BOM_LAT BOM_LON BOM_TYPE BOM_WIND BOM_PRES BOM_TNUM BOM_CI BOM_RMW BOM_R34_NE BOM_R34_SE BOM_R34_SW BOM_R34_NW BOM_R50_NE BOM_R50_SE BOM_R50_SW BOM_R50_NW BOM_R64_NE BOM_R64_SE BOM_R64_SW BOM_R64_NW BOM_ROCI BOM_POCI BOM_EYE BOM_POS_METHOD BOM_PRES_METHOD NADI_LAT NADI_LON NADI_CAT NADI_WIND NADI_PRES WELLINGTON_LAT WELLINGTON_LON WELLINGTON_WIND WELLINGTON_PRES DS824_LAT DS824_LON DS824_STAGE DS824_WIND DS824_PRES TD9636_LAT TD9636_LON TD9636_STAGE TD9636_WIND TD9636_PRES TD9635_LAT TD9635_LON TD9635_WIND TD9635_PRES TD9635_ROCI NEUMANN_LAT NEUMANN_LON NEUMANN_CLASS NEUMANN_WIND NEUMANN_PRES MLC_LAT MLC_LON MLC_CLASS MLC_WIND MLC_PRES USA_GUST BOM_GUST BOM_GUST_PER REUNION_GUST REUNION_GUST_PER USA_SEAHGT USA_SEARAD_NE USA_SEARAD_SE USA_SEARAD_SW USA_SEARAD_NW STORM_SPEED STORM_DIR
1937215N23285 1937 29 NA NA NOT_NAMED 1937-08-02 18:00:00 TS 22.8000 -75.5000 25 hurdat_atl main 192 192 O_____________ hurdat_atl AL021937 22.8000 -75.5000 TD 25 -1 9 335
1937215N23285 1937 29 NA NA NOT_NAMED 1937-08-02 21:00:00 TS 23.2076 -75.7097 main 220 208 P_____________ AL021937 23.2076 -75.7097 TD 27 -1 9 335
1937215N23285 1937 29 NA NA NOT_NAMED 1937-08-03 00:00:00 TS 23.6000 -75.9000 30 hurdat_atl main 208 184 O_____________ hurdat_atl AL021937 23.6000 -75.9000 TD 30 -1 8 337
1937215N23285 1937 29 NA NA NOT_NAMED 1937-08-03 03:00:00 TS 23.9650 -76.0576 main 171 153 P_____________ AL021937 23.9650 -76.0576 TD 30 -1 8 339
1937215N23285 1937 29 NA NA NOT_NAMED 1937-08-03 06:00:00 TS 24.3000 -76.2000 30 hurdat_atl main 153 141 O_____________ hurdat_atl AL021937 24.3000 -76.2000 TD 30 -1 7 337
1937215N23285 1937 29 NA NA NOT_NAMED 1937-08-03 09:00:00 TS 24.6000 -76.3576 main 131 125 P_____________ AL021937 24.6000 -76.3576 TD 30 -1 7 335
1937215N23285 1937 29 NA NA NOT_NAMED 1937-08-03 12:00:00 TS 24.9000 -76.5000 30 hurdat_atl main 129 124 O_____________ hurdat_atl AL021937 24.9000 -76.5000 TD 30 -1 7 340
1937215N23285 1937 29 NA NA NOT_NAMED 1937-08-03 15:00:00 TS 25.2350 -76.6076 main 133 132 P_____________ AL021937 25.2350 -76.6076 TD 32 -1 7 345
1937215N23285 1937 29 NA NA NOT_NAMED 1937-08-03 18:00:00 TS 25.6000 -76.7000 35 hurdat_atl main 141 141 O_____________ hurdat_atl AL021937 25.6000 -76.7000 TS 35 0 8 347
1937215N23285 1937 29 NA NA NOT_NAMED 1937-08-03 21:00:00 TS 26.0000 -76.8075 main 156 156 P_____________ AL021937 26.0000 -76.8075 TS 35 0 8 347
1937215N23285 1937 29 NA NA NOT_NAMED 1937-08-04 00:00:00 TS 26.4000 -76.9000 35 hurdat_atl main 182 182 O_____________ hurdat_atl AL021937 26.4000 -76.9000 TS 35 0 8 350
1937215N23285 1937 29 NA NA NOT_NAMED 1937-08-04 03:00:00 TS 26.7425 -76.9576 main 204 204 P_____________ AL021937 26.7425 -76.9576 TS 35 0 7 353
1937215N23285 1937 29 NA NA NOT_NAMED 1937-08-04 06:00:00 TS 27.1000 -77.0000 35 hurdat_atl main 244 244 O_____________ hurdat_atl AL021937 27.1000 -77.0000 TS 35 0 8 354
1937215N23285 1937 29 NA NA NOT_NAMED 1937-08-04 09:00:00 TS 27.5350 -77.0574 main 282 282 P_____________ AL021937 27.5350 -77.0574 TS 35 0 9 355
1937215N23285 1937 29 NA NA NOT_NAMED 1937-08-04 12:00:00 TS 28.0000 -77.1000 35 hurdat_atl main 315 315 O_____________ hurdat_atl AL021937 28.0000 -77.1000 TS 35 0 9 357
1937215N23285 1937 29 NA NA NOT_NAMED 1937-08-04 15:00:00 TS 28.4500 -77.1076 main 331 331 P_____________ AL021937 28.4500 -77.1076 TS 35 0 9 0
1937215N23285 1937 29 NA NA NOT_NAMED 1937-08-04 18:00:00 TS 28.9000 -77.1000 35 hurdat_atl main 334 334 O_____________ hurdat_atl AL021937 28.9000 -77.1000 TS 35 0 9 0
1937215N23285 1937 29 NA NA NOT_NAMED 1937-08-04 21:00:00 TS 29.3500 -77.1074 main 342 342 P_____________ AL021937 29.3500 -77.1074 TS 35 0 9 0
1937215N23285 1937 29 NA NA NOT_NAMED 1937-08-05 00:00:00 TS 29.8000 -77.1000 35 hurdat_atl main 360 360 O_____________ hurdat_atl AL021937 29.8000 -77.1000 TS 35 0 9 3
1937215N23285 1937 29 NA NA NOT_NAMED 1937-08-05 03:00:00 TS 30.2425 -77.0649 main 379 342 P_____________ AL021937 30.2425 -77.0649 TS 35 0 9 5
1937215N23285 1937 29 NA NA NOT_NAMED 1937-08-05 06:00:00 TS 30.7000 -77.0000 35 hurdat_atl main 342 309 O_____________ hurdat_atl AL021937 30.7000 -77.0000 TS 35 0 10 7
1937215N23285 1937 29 NA NA NOT_NAMED 1937-08-05 09:00:00 TS 31.1999 -76.9371 main 309 269 P_____________ AL021937 31.1999 -76.9371 TS 37 0 10 10
1937215N23285 1937 29 NA NA NOT_NAMED 1937-08-05 12:00:00 TS 31.7000 -76.8000 40 hurdat_atl main 269 239 O_____________ hurdat_atl AL021937 31.7000 -76.8000 TS 40 0 10 19
1937215N23285 1937 29 NA NA NOT_NAMED 1937-08-05 15:00:00 TS 32.1573 -76.5596 main 229 221 P_____________ AL021937 32.1573 -76.5596 TS 40 0 10 29
1937215N23285 1937 29 NA NA NOT_NAMED 1937-08-05 18:00:00 TS 32.6000 -76.2000 40 hurdat_atl main 221 200 O_____________ hurdat_atl AL021937 32.6000 -76.2000 TS 40 0 11 38
1937215N23285 1937 29 NA NA NOT_NAMED 1937-08-05 21:00:00 TS 33.0502 -75.7225 main 192 173 P_____________ AL021937 33.0502 -75.7225 TS 42 0 12 43
1937215N23285 1937 29 NA NA NOT_NAMED 1937-08-06 00:00:00 TS 33.5000 -75.2000 45 hurdat_atl main 179 176 O_____________ hurdat_atl AL021937 33.5000 -75.2000 TS 45 0 12 43
1937215N23285 1937 29 NA NA NOT_NAMED 1937-08-06 03:00:00 TS 33.9423 -74.7344 main 184 177 P_____________ AL021937 33.9423 -74.7344 TS 47 0 12 40
1937215N23285 1937 29 NA NA NOT_NAMED 1937-08-06 06:00:00 TS 34.4000 -74.3000 50 hurdat_atl main 184 175 O_____________ hurdat_atl AL021937 34.4000 -74.3000 TS 50 0 12 36
1937215N23285 1937 29 NA NA NOT_NAMED 1937-08-06 09:00:00 TS 34.9149 -73.8776 main 176 172 P_____________ AL021937 34.9149 -73.8776 TS 50 0 12 33
1937215N23285 1937 29 NA NA NOT_NAMED 1937-08-06 12:00:00 TS 35.4000 -73.5000 50 hurdat_atl main 185 185 O_____________ hurdat_atl AL021937 35.4000 -73.5000 TS 50 0 10 34
1937215N23285 1937 29 NA NA NOT_NAMED 1937-08-06 15:00:00 TS 35.7497 -73.1914 main 207 206 P_____________ AL021937 35.7497 -73.1914 TS 50 0 9 35
1937215N23285 1937 29 NA NA NOT_NAMED 1937-08-06 18:00:00 TS 36.1000 -72.9000 50 hurdat_atl main 235 235 O_____________ hurdat_atl AL021937 36.1000 -72.9000 TS 50 0 9 32
1937215N23285 1937 29 NA NA NOT_NAMED 1937-08-06 21:00:00 TS 36.5473 -72.5789 main 271 271 P_____________ AL021937 36.5473 -72.5789 TS 52 0 11 29
1937215N23285 1937 29 NA NA NOT_NAMED 1937-08-07 00:00:00 TS 37.1000 -72.2000 55 hurdat_atl main 287 282 O_____________ hurdat_atl AL021937 37.1000 -72.2000 TS 55 0 14 28
1937215N23285 1937 29 NA NA NOT_NAMED 1937-08-07 03:00:00 TS 37.7691 -71.7808 main 287 280 P_____________ AL021937 37.7691 -71.7808 TS 55 0 16 29
1937215N23285 1937 29 NA NA NOT_NAMED 1937-08-07 06:00:00 TS 38.5000 -71.2000 55 hurdat_atl main 282 254 O_____________ hurdat_atl AL021937 38.5000 -71.2000 TS 55 0 18 38
1937215N23285 1937 29 NA NA NOT_NAMED 1937-08-07 09:00:00 TS 39.2233 -70.3462 main 258 203 P_____________ AL021937 39.2233 -70.3462 TS 55 0 20 45
1937215N23285 1937 29 NA NA NOT_NAMED 1937-08-07 12:00:00 TS 39.9000 -69.4000 55 hurdat_atl main 206 177 O_____________ hurdat_atl AL021937 39.9000 -69.4000 TS 55 0 19 47
1937215N23285 1937 29 NA NA NOT_NAMED 1937-08-07 15:00:00 TS 40.4944 -68.5686 main 177 175 P_____________ AL021937 40.4944 -68.5686 TS 55 0 16 48
1937215N23285 1937 29 NA NA NOT_NAMED 1937-08-07 18:00:00 TS 41.0000 -67.8000 55 hurdat_atl main 198 198 O_____________ hurdat_atl AL021937 41.0000 -67.8000 TS 55 0 15 50
1937215N23285 1937 29 NA NA NOT_NAMED 1937-08-07 21:00:00 TS 41.4294 -67.0760 main 242 197 P_____________ AL021937 41.4294 -67.0760 TS 52 0 13 53
1937215N23285 1937 29 NA NA NOT_NAMED 1937-08-08 00:00:00 TS 41.8000 -66.4000 50 hurdat_atl main 197 144 O_____________ hurdat_atl AL021937 41.8000 -66.4000 TS 50 0 13 52
1937215N23285 1937 29 NA NA NOT_NAMED 1937-08-08 03:00:00 TS 42.2019 -65.7503 main 144 111 P_____________ AL021937 42.2019 -65.7503 TS 47 0 12 54
1937215N23285 1937 29 NA NA NOT_NAMED 1937-08-08 06:00:00 TS 42.5000 -65.1000 45 hurdat_atl main 112 105 O_____________ hurdat_atl AL021937 42.5000 -65.1000 TS 45 0 11 68
1937215N23285 1937 29 NA NA NOT_NAMED 1937-08-08 09:00:00 TS 42.6022 -64.4062 main 123 123 P_____________ AL021937 42.6022 -64.4062 TS 42 0 10 84
1937215N23285 1937 29 NA NA NOT_NAMED 1937-08-08 12:00:00 TS 42.6000 -63.7000 40 hurdat_atl main 160 160 O_____________ hurdat_atl AL021937 42.6000 -63.7000 TS 40 0 10 91
1937215N23285 1937 29 NA NA NOT_NAMED 1937-08-08 15:00:00 TS 42.5923 -62.9843 main 197 197 P_____________ AL021937 42.5923 -62.9843 TS 37 0 10 90
1937215N23285 1937 29 NA NA NOT_NAMED 1937-08-08 18:00:00 TS 42.6000 -62.3000 35 hurdat_atl main 225 225 O_____________ hurdat_atl AL021937 42.6000 -62.3000 TS 35 0 10 84
1937215N23285 1937 29 NA NA NOT_NAMED 1937-08-08 21:00:00 TS 42.6923 -61.6630 main 239 239 P_____________ AL021937 42.6923 -61.6630 TS 32 -1 9 77
1937215N23285 1937 29 NA NA NOT_NAMED 1937-08-09 00:00:00 TS 42.8000 -61.1000 30 hurdat_atl main 248 248 O_____________ hurdat_atl AL021937 42.8000 -61.1000 TD 30 -1 8 79
1937215N23285 1937 29 NA NA NOT_NAMED 1937-08-09 03:00:00 TS 42.8423 -60.5970 main 265 258 P_____________ AL021937 42.8423 -60.5970 TD 30 -1 7 81
1937215N23285 1937 29 NA NA NOT_NAMED 1937-08-09 06:00:00 TS 42.9000 -60.2000 30 hurdat_atl main 265 259 O_____________ hurdat_atl AL021937 42.9000 -60.2000 TD 30 -1 5 70
1937215N23285 1937 29 NA NA NOT_NAMED 1937-08-09 09:00:00 TS 43.0275 -59.9179 main 262 245 P_____________ AL021937 43.0275 -59.9179 TD 30 -1 5 50
1937215N23285 1937 29 NA NA NOT_NAMED 1937-08-09 12:00:00 TS 43.2000 -59.7000 30 hurdat_atl main 248 O_____________ hurdat_atl AL021937 43.2000 -59.7000 TD 30 -1 5 43

About IBTrACS Database

This database is a web-friendly format of International Best Track Archive for Climate Stewardship (IBTrACS), a global best track data archive curated by NOAA dating back to 1842.

Updated: 2021-12-08